Mansfield, Ohio
Current Conditions -  °F | °C
As of 7:52 AM on Sunday 23 Nov 2014 (Local Time) from KMFD Reporting Station
Overcast Overcast  
Wind Chill:   Ceiling: 5000
Heat Index:   Visibility: 10mi
Dew Point:   Wind: 10mph
Humidity: 89%   Direction: 160°SSE
Pressure: 30.01"   Gusts: NA
Location:  40.76°N, 82.51°W
Report Text: KMFD 231252Z 16009KT 10SM FEW033 SCT043 OVC050 07/05 A3001 RMK AO2 SLP166 T00670050
Loading
Personal Weather Stations






























Interactive Weather Map New forecast layout! Learn more

10-Day Weather Forecast

Advertisements
Track Severe Weather on mobile